createdAt,value
2019-04-19T00:01:55.324Z,64.80
2019-04-19T00:04:20.275Z,64.80
2019-04-19T00:07:02.022Z,65.20
2019-04-19T00:09:36.216Z,65.80
2019-04-19T00:12:09.192Z,65.80
2019-04-19T00:14:25.741Z,65.50
2019-04-19T00:16:57.470Z,66.00
2019-04-19T00:19:49.502Z,66.00
2019-04-19T00:22:18.518Z,65.90
2019-04-19T00:24:30.518Z,65.60
2019-04-19T00:27:02.257Z,64.10
2019-04-19T00:29:42.855Z,64.50
2019-04-19T00:32:18.858Z,64.40
2019-04-19T00:34:35.586Z,64.50
2019-04-19T00:37:05.786Z,64.90
2019-04-19T00:40:07.557Z,65.50
2019-04-19T00:42:47.951Z,65.60
2019-04-19T00:45:26.422Z,66.30
2019-04-19T00:47:58.665Z,66.40
2019-04-19T00:50:26.836Z,66.90
2019-04-19T00:53:02.919Z,66.60
2019-04-19T00:55:25.746Z,67.10
2019-04-19T00:57:58.026Z,67.00
2019-04-19T01:00:25.995Z,66.30
2019-04-19T01:02:56.073Z,66.20
2019-04-19T01:05:27.676Z,66.70
2019-04-19T01:07:55.674Z,66.90
2019-04-19T01:10:36.854Z,67.20
2019-04-19T01:13:09.910Z,66.90
2019-04-19T01:15:36.526Z,66.80
2019-04-19T01:18:15.274Z,67.90
2019-04-19T01:20:31.152Z,67.10
2019-04-19T01:23:07.427Z,66.90
2019-04-19T01:25:33.641Z,66.70
2019-04-19T01:28:10.974Z,66.40
2019-04-19T01:30:38.471Z,66.90
2019-04-19T01:33:07.097Z,67.30
2019-04-19T01:35:41.091Z,67.50
2019-04-19T01:38:10.178Z,67.90
2019-04-19T01:40:59.193Z,67.90
2019-04-19T01:43:27.839Z,68.10
2019-04-19T01:46:09.289Z,68.60
2019-04-19T01:49:14.164Z,68.50
2019-04-19T01:52:22.396Z,68.10
2019-04-19T01:54:47.644Z,68.50
2019-04-19T01:57:05.435Z,69.50
2019-04-19T01:59:39.842Z,69.60
2019-04-19T02:02:09.468Z,69.00
2019-04-19T02:04:36.526Z,68.50
2019-04-19T02:07:12.626Z,68.40
2019-04-19T02:09:57.473Z,68.90
2019-04-19T02:12:22.433Z,69.00
2019-04-19T02:15:04.792Z,69.10
2019-04-19T02:17:37.255Z,68.70
2019-04-19T02:20:04.120Z,69.30
2019-04-19T02:22:36.079Z,69.50
2019-04-19T02:25:03.869Z,70.10
2019-04-19T02:27:40.060Z,70.50
2019-04-19T02:30:15.886Z,70.90
2019-04-19T02:32:55.681Z,70.60
2019-04-19T02:35:31.803Z,70.40
2019-04-19T02:38:04.274Z,70.10
2019-04-19T02:40:52.334Z,70.10
2019-04-19T02:43:10.609Z,70.30
2019-04-19T02:45:44.324Z,70.80
2019-04-19T02:48:13.269Z,70.90
2019-04-19T02:55:45.786Z,70.50
2019-04-19T03:01:17.272Z,70.20
2019-04-19T03:03:27.416Z,70.80
2019-04-19T03:05:57.104Z,71.30
2019-04-19T03:08:10.639Z,71.40
2019-04-19T03:10:53.513Z,72.00
2019-04-19T03:13:29.641Z,71.90
2019-04-19T03:15:58.321Z,71.90
2019-04-19T03:18:30.770Z,73.30
2019-04-19T03:20:54.188Z,72.40
2019-04-19T03:23:26.226Z,71.10
2019-04-19T03:25:54.691Z,72.90
2019-04-19T03:28:26.672Z,71.90
2019-04-19T03:31:20.429Z,70.70
2019-04-19T03:36:11.999Z,71.10
2019-04-19T03:38:40.344Z,71.10
2019-04-19T03:41:18.893Z,71.40
2019-04-19T03:43:51.789Z,71.70
2019-04-19T03:46:21.442Z,71.60
2019-04-19T03:48:51.828Z,71.70
2019-04-19T03:51:24.248Z,72.00
2019-04-19T03:54:14.423Z,72.50
2019-04-19T03:56:30.318Z,72.50
2019-04-19T03:58:41.804Z,72.50
2019-04-19T04:01:12.822Z,73.40
2019-04-19T04:03:46.677Z,72.40
2019-04-19T04:06:23.057Z,72.50
2019-04-19T04:08:53.659Z,72.40
2019-04-19T04:11:29.545Z,72.30
2019-04-19T04:14:15.012Z,71.70
2019-04-19T04:16:53.775Z,71.60
2019-04-19T04:19:23.064Z,71.80
2019-04-19T04:21:54.002Z,72.40
2019-04-19T04:24:32.040Z,72.40
2019-04-19T04:27:05.857Z,72.50
2019-04-19T04:29:34.734Z,72.60
2019-04-19T04:32:11.346Z,72.90
2019-04-19T04:34:40.934Z,73.20
2019-04-19T04:37:17.011Z,73.20
2019-04-19T04:39:32.330Z,73.00
2019-04-19T04:42:11.324Z,73.10
2019-04-19T04:45:01.732Z,73.20
2019-04-19T04:47:39.357Z,72.80
2019-04-19T04:50:19.456Z,72.70
2019-04-19T04:52:40.523Z,73.40
2019-04-19T04:55:15.870Z,74.00
2019-04-19T04:57:52.141Z,73.90
2019-04-19T05:00:20.368Z,74.30
2019-04-19T05:03:06.114Z,74.00
2019-04-19T05:05:35.729Z,73.30
2019-04-19T05:08:14.594Z,73.70
2019-04-19T05:10:35.950Z,72.90
2019-04-19T05:13:19.672Z,73.40
2019-04-19T05:15:43.399Z,73.60
2019-04-19T05:20:41.057Z,73.60
2019-04-19T05:23:14.629Z,74.70
2019-04-19T05:25:51.395Z,73.70
2019-04-19T05:28:16.767Z,74.10
2019-04-19T05:30:41.184Z,74.20
2019-04-19T05:33:14.109Z,74.50
2019-04-19T05:35:52.369Z,75.00
2019-04-19T05:38:44.945Z,75.50
2019-04-19T05:41:29.745Z,76.00
2019-04-19T05:44:37.158Z,76.00
2019-04-19T05:47:01.427Z,78.00
2019-04-19T05:49:28.091Z,75.10
2019-04-19T05:52:02.129Z,74.60
2019-04-19T05:54:16.992Z,74.10
2019-04-19T05:56:53.245Z,73.40
2019-04-19T05:59:30.581Z,73.20
2019-04-19T06:02:02.226Z,72.40
2019-04-19T06:04:38.974Z,71.60
2019-04-19T06:07:10.487Z,70.60
2019-04-19T06:09:21.910Z,71.10
2019-04-19T06:11:53.239Z,71.10
2019-04-19T06:14:45.407Z,71.00
2019-04-19T06:17:48.781Z,70.80
2019-04-19T06:20:16.317Z,69.80
2019-04-19T06:22:53.470Z,68.60
2019-04-19T06:25:24.708Z,67.20
2019-04-19T06:28:09.372Z,66.60
2019-04-19T06:30:27.250Z,66.90
2019-04-19T06:32:56.277Z,65.60
2019-04-19T06:35:22.153Z,64.60
2019-04-19T06:37:41.978Z,65.80
2019-04-19T06:40:19.745Z,64.50
2019-04-19T06:42:54.287Z,64.90
2019-04-19T06:45:32.220Z,64.30
2019-04-19T06:47:54.289Z,64.80
2019-04-19T06:50:25.769Z,64.00
2019-04-19T06:52:48.998Z,63.50
2019-04-19T06:55:25.995Z,62.70
2019-04-19T06:57:58.966Z,62.40
2019-04-19T07:00:34.957Z,62.00
2019-04-19T07:02:54.195Z,60.00
2019-04-19T07:05:37.327Z,59.50
2019-04-19T07:08:29.978Z,60.60
2019-04-19T07:10:51.507Z,60.10
2019-04-19T07:13:16.195Z,60.20
2019-04-19T07:15:59.989Z,60.40
2019-04-19T07:18:19.035Z,59.80
2019-04-19T07:20:54.699Z,59.40
2019-04-19T07:23:26.124Z,58.40
2019-04-19T07:26:00.062Z,57.70
2019-04-19T07:28:12.427Z,58.00
2019-04-19T07:30:37.394Z,58.40
2019-04-19T07:33:12.972Z,58.40
2019-04-19T07:36:01.911Z,58.80
2019-04-19T07:38:29.079Z,58.00
2019-04-19T07:41:01.190Z,57.50
2019-04-19T07:43:28.867Z,56.90
2019-04-19T07:46:14.081Z,56.70
2019-04-19T07:48:36.569Z,57.00
2019-04-19T07:51:13.437Z,57.30
2019-04-19T07:53:44.307Z,56.60
2019-04-19T07:56:23.918Z,55.90
2019-04-19T07:59:07.863Z,55.40
2019-04-19T08:01:45.689Z,56.20
2019-04-19T08:04:19.900Z,55.60
2019-04-19T08:09:11.340Z,56.80
2019-04-19T08:14:35.839Z,55.10
2019-04-19T08:17:26.359Z,54.90
2019-04-19T08:29:07.170Z,52.20
2019-04-19T08:31:25.675Z,53.70
2019-04-19T08:33:55.220Z,53.70
2019-04-19T08:36:32.192Z,53.30
2019-04-19T08:39:17.108Z,53.20
2019-04-19T08:41:46.845Z,52.30
2019-04-19T08:44:18.151Z,52.70
2019-04-19T08:46:43.027Z,52.30
2019-04-19T08:49:28.399Z,52.00
2019-04-19T08:52:00.011Z,53.70
2019-04-19T08:54:56.509Z,50.30
2019-04-19T08:57:08.103Z,52.20
2019-04-19T08:59:53.812Z,52.00
2019-04-19T09:02:24.966Z,49.70
2019-04-19T09:04:55.124Z,51.60
2019-04-19T09:10:17.778Z,50.40
2019-04-19T09:12:30.856Z,48.70
2019-04-19T09:15:09.655Z,51.00
2019-04-19T09:17:59.334Z,51.20
2019-04-19T09:20:15.286Z,50.70
2019-04-19T09:22:37.190Z,48.80
2019-04-19T09:25:06.614Z,48.50
2019-04-19T09:27:52.219Z,46.90
2019-04-19T09:30:24.181Z,48.80
2019-04-19T09:32:35.965Z,49.00
2019-04-19T09:35:09.285Z,50.00
2019-04-19T09:37:47.700Z,49.10
2019-04-19T09:40:13.836Z,48.60
2019-04-19T09:42:51.081Z,48.30
2019-04-19T09:45:12.574Z,45.40
2019-04-19T09:47:42.580Z,44.60
2019-04-19T09:50:30.268Z,47.20
2019-04-19T09:53:10.450Z,47.60
2019-04-19T09:55:42.589Z,47.00
2019-04-19T09:58:08.839Z,45.90
2019-04-19T10:00:28.147Z,45.20
2019-04-19T10:03:02.784Z,48.60
2019-04-19T10:05:28.612Z,44.90
2019-04-19T10:07:59.673Z,44.30
2019-04-19T10:10:31.144Z,46.20
2019-04-19T10:13:03.589Z,43.80
2019-04-19T10:15:42.860Z,44.20
2019-04-19T10:18:14.524Z,44.90
2019-04-19T10:21:19.306Z,42.00
2019-04-19T10:23:41.469Z,43.80
2019-04-19T10:26:20.099Z,42.20
2019-04-19T10:28:50.865Z,42.40
2019-04-19T10:31:29.505Z,44.60
2019-04-19T10:34:02.996Z,42.40
2019-04-19T10:36:33.105Z,41.60
2019-04-19T10:39:03.497Z,42.20
2019-04-19T10:41:34.206Z,40.70
2019-04-19T10:44:13.217Z,41.90
2019-04-19T10:46:36.797Z,38.90
2019-04-19T10:49:14.343Z,39.40
2019-04-19T10:51:43.861Z,39.50
2019-04-19T10:54:14.862Z,38.10
2019-04-19T10:56:56.465Z,34.30
2019-04-19T10:59:27.388Z,34.90
2019-04-19T11:01:57.760Z,33.30
2019-04-19T11:04:28.874Z,34.30
2019-04-19T11:06:59.826Z,33.50
2019-04-19T11:09:31.166Z,33.20
2019-04-19T11:12:01.791Z,33.50
2019-04-19T11:14:34.341Z,33.70
2019-04-19T11:17:07.449Z,32.50
2019-04-19T11:19:49.697Z,35.40
2019-04-19T11:22:09.772Z,34.50
2019-04-19T11:24:41.556Z,34.20
2019-04-19T11:27:13.209Z,32.00
2019-04-19T11:29:44.769Z,32.20
2019-04-19T11:32:26.034Z,33.00
2019-04-19T11:34:56.254Z,31.60
2019-04-19T11:37:27.300Z,30.20
2019-04-19T11:39:57.698Z,30.00
2019-04-19T11:42:27.805Z,32.50
2019-04-19T11:44:59.357Z,32.50
2019-04-19T11:47:29.534Z,30.90
2019-04-19T11:50:00.214Z,32.40
2019-04-19T11:52:39.760Z,31.00
2019-04-19T11:55:10.694Z,31.90
2019-04-19T11:57:48.361Z,29.30
2019-04-19T12:00:38.011Z,30.30
2019-04-19T12:03:09.827Z,29.50
2019-04-19T12:05:40.040Z,27.90
2019-04-19T12:08:10.648Z,30.60
2019-04-19T12:10:40.655Z,29.20
2019-04-19T12:13:11.007Z,30.50
2019-04-19T12:15:42.186Z,28.70
2019-04-19T12:18:12.559Z,29.70
2019-04-19T12:20:42.906Z,28.00
2019-04-19T12:23:13.830Z,28.50
2019-04-19T12:25:45.802Z,26.60
2019-04-19T12:28:16.054Z,26.20
2019-04-19T12:30:50.566Z,27.10
2019-04-19T12:33:19.441Z,29.10
2019-04-19T12:35:49.763Z,27.50
2019-04-19T12:38:19.957Z,27.60
2019-04-19T12:40:58.210Z,27.80
2019-04-19T12:43:29.933Z,29.30
2019-04-19T12:46:01.081Z,28.20
2019-04-19T12:48:31.988Z,27.50
2019-04-19T12:51:02.289Z,27.90
2019-04-19T12:53:32.911Z,28.20
2019-04-19T12:56:04.128Z,25.90
2019-04-19T12:58:35.792Z,25.90
2019-04-19T13:01:21.873Z,26.20
2019-04-19T13:04:04.374Z,26.80
2019-04-19T13:06:35.898Z,25.70
2019-04-19T13:09:08.935Z,26.50
2019-04-19T13:11:41.081Z,25.60
2019-04-19T13:14:12.121Z,25.00
2019-04-19T13:16:44.051Z,25.30
2019-04-19T13:19:19.403Z,25.90
2019-04-19T13:21:48.872Z,26.90
2019-04-19T13:24:20.412Z,25.20
2019-04-19T13:26:51.695Z,25.10
2019-04-19T13:29:21.269Z,25.50
2019-04-19T13:31:52.463Z,26.80
2019-04-19T13:34:25.224Z,24.30
2019-04-19T13:37:29.546Z,24.20
2019-04-19T13:40:19.865Z,24.50
2019-04-19T13:42:52.535Z,24.60
2019-04-19T13:45:29.627Z,25.90
2019-04-19T13:47:56.957Z,24.80
2019-04-19T13:50:33.151Z,25.70
2019-04-19T13:52:58.890Z,24.40
2019-04-19T13:55:29.073Z,24.40
2019-04-19T13:57:59.770Z,23.60
2019-04-19T14:00:46.782Z,24.30
2019-04-19T14:03:23.703Z,23.50
2019-04-19T14:05:54.772Z,23.90
2019-04-19T14:08:25.238Z,23.20
2019-04-19T14:10:57.101Z,22.90
2019-04-19T14:13:27.390Z,24.40
2019-04-19T14:15:58.811Z,22.50
2019-04-19T14:18:30.869Z,22.00
2019-04-19T14:21:01.507Z,23.00
2019-04-19T14:23:33.247Z,22.90
2019-04-19T14:26:05.379Z,22.90
2019-04-19T14:28:35.894Z,22.30
2019-04-19T14:31:06.773Z,22.00
2019-04-19T14:33:37.295Z,19.60
2019-04-19T14:36:08.171Z,21.10
2019-04-19T14:38:41.299Z,20.40
2019-04-19T14:41:11.825Z,19.50
2019-04-19T14:43:42.748Z,19.50
2019-04-19T14:46:14.295Z,20.40
2019-04-19T14:48:47.281Z,18.90
2019-04-19T14:51:24.681Z,17.90
2019-04-19T14:53:49.752Z,18.30
2019-04-19T14:56:20.017Z,19.00
2019-04-19T14:58:50.840Z,18.80
2019-04-19T15:01:35.051Z,19.50
2019-04-19T15:04:10.966Z,19.10
2019-04-19T15:06:41.892Z,18.90
2019-04-19T15:09:12.100Z,18.60
2019-04-19T15:11:43.447Z,18.90
2019-04-19T15:14:14.453Z,17.70
2019-04-19T15:16:45.384Z,18.80
2019-04-19T15:19:16.733Z,17.90
2019-04-19T15:21:46.514Z,18.40
2019-04-19T15:24:16.886Z,18.60
2019-04-19T15:26:47.435Z,17.50
2019-04-19T15:29:18.862Z,17.80
2019-04-19T15:31:48.648Z,19.10
2019-04-19T15:34:19.985Z,17.70
2019-04-19T15:36:49.921Z,17.80
2019-04-19T15:39:19.772Z,18.10
2019-04-19T15:41:50.641Z,18.10
2019-04-19T15:44:20.741Z,18.20
2019-04-19T15:46:50.126Z,18.40
2019-04-19T15:49:21.731Z,17.70
2019-04-19T15:51:52.019Z,18.40
2019-04-19T15:54:21.976Z,17.60
2019-04-19T15:56:52.110Z,17.00
2019-04-19T15:59:24.979Z,17.00
2019-04-19T16:02:11.602Z,16.00
2019-04-19T16:04:59.798Z,16.90
2019-04-19T16:07:35.935Z,16.50
2019-04-19T16:10:19.795Z,17.10
2019-04-19T16:12:49.933Z,16.80
2019-04-19T16:15:20.119Z,16.80
2019-04-19T16:17:50.270Z,17.60
2019-04-19T16:20:21.147Z,17.00
2019-04-19T16:22:52.020Z,17.90
2019-04-19T16:25:23.245Z,18.30
2019-04-19T16:27:53.566Z,18.30
2019-04-19T16:30:24.051Z,17.80
2019-04-19T16:32:55.050Z,18.80
2019-04-19T16:35:26.407Z,18.50
2019-04-19T16:37:57.492Z,19.20
2019-04-19T16:40:28.104Z,19.30
2019-04-19T16:42:59.279Z,20.10
2019-04-19T16:45:30.184Z,20.50
2019-04-19T16:48:00.155Z,21.50
2019-04-19T16:50:30.497Z,21.90
2019-04-19T16:53:03.167Z,22.00
2019-04-19T16:55:31.717Z,22.00
2019-04-19T16:58:02.837Z,23.50
2019-04-19T17:00:42.996Z,23.90
2019-04-19T17:03:14.095Z,23.70
2019-04-19T17:05:44.647Z,24.10
2019-04-19T17:08:15.558Z,24.00
2019-04-19T17:10:46.852Z,25.20
2019-04-19T17:13:17.009Z,25.00
2019-04-19T17:16:11.734Z,25.40
2019-04-19T17:19:03.180Z,26.70
2019-04-19T17:21:45.206Z,26.80
2019-04-19T17:24:05.037Z,28.00
2019-04-19T17:26:35.234Z,28.50
2019-04-19T17:29:06.565Z,29.20
2019-04-19T17:31:36.696Z,29.30
2019-04-19T17:34:26.336Z,29.90
2019-04-19T17:36:56.350Z,30.60
2019-04-19T17:39:26.736Z,32.00
2019-04-19T17:41:56.765Z,32.60
2019-04-19T17:44:26.053Z,33.00
2019-04-19T17:46:56.365Z,31.80
2019-04-19T17:49:26.617Z,32.20
2019-04-19T17:52:04.716Z,31.40
2019-04-19T17:54:43.153Z,32.40
2019-04-19T17:56:59.514Z,32.60
2019-04-19T17:59:30.199Z,32.90
2019-04-19T18:02:01.233Z,33.20
2019-04-19T18:04:33.114Z,32.60
2019-04-19T18:07:04.617Z,32.90
2019-04-19T18:09:33.349Z,34.30
2019-04-19T18:12:03.132Z,33.70
2019-04-19T18:14:33.721Z,33.30
2019-04-19T18:17:03.573Z,34.20
2019-04-19T18:19:36.250Z,33.30
2019-04-19T18:22:15.282Z,32.80
2019-04-19T18:24:40.417Z,33.70
2019-04-19T18:27:09.085Z,34.10
2019-04-19T18:29:38.040Z,34.20
2019-04-19T18:32:25.938Z,33.50
2019-04-19T18:34:55.933Z,33.60
2019-04-19T18:37:29.622Z,35.00
2019-04-19T18:39:56.349Z,36.20
2019-04-19T18:42:26.038Z,35.20
2019-04-19T18:44:59.437Z,36.50
2019-04-19T18:47:27.135Z,34.60
2019-04-19T18:49:57.372Z,35.90
2019-04-19T18:52:38.381Z,35.00
2019-04-19T18:55:05.020Z,35.10
2019-04-19T18:57:33.924Z,36.90
2019-04-19T19:00:02.125Z,36.90
2019-04-19T19:02:32.292Z,36.80
2019-04-19T19:05:05.660Z,37.30
2019-04-19T19:07:34.682Z,37.00
2019-04-19T19:10:06.275Z,37.20
2019-04-19T19:12:41.442Z,37.60
2019-04-19T19:15:08.349Z,37.60
2019-04-19T19:17:38.144Z,38.20
2019-04-19T19:20:16.915Z,38.00
2019-04-19T19:23:00.199Z,39.00
2019-04-19T19:25:33.102Z,39.20
2019-04-19T19:27:50.419Z,39.70
2019-04-19T19:30:21.004Z,39.70
2019-04-19T19:32:53.957Z,40.20
2019-04-19T19:35:24.759Z,40.40
2019-04-19T19:37:52.725Z,41.00
2019-04-19T19:40:29.597Z,41.60
2019-04-19T19:43:11.720Z,41.60
2019-04-19T19:45:41.475Z,42.40
2019-04-19T19:48:23.721Z,42.60
2019-04-19T19:50:51.818Z,43.00
2019-04-19T19:53:35.859Z,42.30
2019-04-19T19:56:02.956Z,42.80
2019-04-19T19:58:17.189Z,42.70
2019-04-19T20:00:55.608Z,43.20
2019-04-19T20:03:16.380Z,42.30
2019-04-19T20:05:40.865Z,42.30
2019-04-19T20:08:09.608Z,43.00
2019-04-19T20:10:44.088Z,43.20
2019-04-19T20:13:15.917Z,43.70
2019-04-19T20:15:45.983Z,43.60
2019-04-19T20:18:14.421Z,43.80
2019-04-19T20:20:44.440Z,43.70
2019-04-19T20:23:21.693Z,44.20
2019-04-19T20:25:54.825Z,43.20
2019-04-19T20:28:23.637Z,42.70
2019-04-19T20:30:50.649Z,42.40
2019-04-19T20:33:19.668Z,43.10
2019-04-19T20:35:54.633Z,43.40
2019-04-19T20:38:24.738Z,43.70
2019-04-19T20:40:58.307Z,44.20
2019-04-19T20:43:39.841Z,45.00
2019-04-19T20:45:56.306Z,45.40
2019-04-19T20:48:28.076Z,45.80
2019-04-19T20:51:06.449Z,46.70
2019-04-19T20:53:38.197Z,46.70
2019-04-19T20:56:54.993Z,44.80
2019-04-19T20:58:52.560Z,44.90
2019-04-19T21:01:18.828Z,46.40
2019-04-19T21:03:49.758Z,46.80
2019-04-19T21:06:28.705Z,47.40
2019-04-19T21:08:52.675Z,47.80
2019-04-19T21:11:21.851Z,48.20
2019-04-19T21:13:56.711Z,47.80
2019-04-19T21:16:25.507Z,48.10
2019-04-19T21:18:56.869Z,48.40
2019-04-19T21:21:24.392Z,48.40
2019-04-19T21:24:00.509Z,48.70
2019-04-19T21:26:29.271Z,48.40
2019-04-19T21:28:58.060Z,48.70
2019-04-19T21:31:36.058Z,49.10
2019-04-19T21:34:02.934Z,49.40
2019-04-19T21:36:36.937Z,49.70
2019-04-19T21:39:06.464Z,48.70
2019-04-19T21:41:35.373Z,48.60
2019-04-19T21:44:04.829Z,47.90
2019-04-19T21:46:35.178Z,48.30
2019-04-19T21:49:08.993Z,48.50
2019-04-19T21:51:37.744Z,48.00
2019-04-19T21:54:08.253Z,48.20
2019-04-19T21:56:43.841Z,48.30
2019-04-19T21:59:11.106Z,48.10
2019-04-19T22:01:46.640Z,48.60
2019-04-19T22:04:15.719Z,49.40
2019-04-19T22:06:53.672Z,49.50
2019-04-19T22:09:21.767Z,49.90
2019-04-19T22:11:50.246Z,50.30
2019-04-19T22:14:24.859Z,50.90
2019-04-19T22:16:52.593Z,51.00
2019-04-19T22:19:27.955Z,50.80
2019-04-19T22:21:53.608Z,50.40
2019-04-19T22:24:31.105Z,51.20
2019-04-19T22:26:57.504Z,51.50
2019-04-19T22:29:27.432Z,51.60
2019-04-19T22:32:04.801Z,51.80
2019-04-19T22:34:28.595Z,52.50
2019-04-19T22:37:01.312Z,52.40
2019-04-19T22:39:29.715Z,52.60
2019-04-19T22:42:01.921Z,52.40
2019-04-19T22:44:32.483Z,52.70
2019-04-19T22:47:02.266Z,52.90
2019-04-19T22:49:33.959Z,53.10
2019-04-19T22:52:02.801Z,53.80
2019-04-19T22:54:32.883Z,54.00
2019-04-19T22:57:12.026Z,54.20
2019-04-19T22:59:33.845Z,54.60
2019-04-19T23:02:36.461Z,54.40
2019-04-19T23:05:03.161Z,54.40
2019-04-19T23:07:40.051Z,54.90
2019-04-19T23:10:06.528Z,54.80
2019-04-19T23:12:37.620Z,55.20
2019-04-19T23:15:15.708Z,55.30
2019-04-19T23:17:42.645Z,55.40
2019-04-19T23:20:13.727Z,55.70
2019-04-19T23:22:44.540Z,55.90
2019-04-19T23:25:15.591Z,56.30
2019-04-19T23:27:49.737Z,55.90
2019-04-19T23:30:22.306Z,56.10
2019-04-19T23:32:50.437Z,56.10
2019-04-19T23:35:28.577Z,55.70
2019-04-19T23:37:53.510Z,56.10
2019-04-19T23:40:29.364Z,54.90
2019-04-19T23:42:55.532Z,53.10
2019-04-19T23:45:32.969Z,53.60
2019-04-19T23:47:58.184Z,54.30
2019-04-19T23:50:32.592Z,54.80
2019-04-19T23:53:00.931Z,55.50
2019-04-19T23:55:30.570Z,56.00
2019-04-19T23:58:01.332Z,57.30
